createdAt,value
2018-03-08T00:00:44.023Z,136.82
2018-03-08T00:03:11.762Z,161.12
2018-03-08T00:05:39.395Z,159.93
2018-03-08T00:08:07.282Z,155.18
2018-03-08T00:10:35.357Z,127.85
2018-03-08T00:13:02.999Z,169.13
2018-03-08T00:15:30.469Z,165.23
2018-03-08T00:17:58.346Z,176.93
2018-03-08T00:20:26.106Z,175.27
2018-03-08T00:22:53.573Z,154.07
2018-03-08T00:25:21.273Z,166.52
2018-03-08T00:27:48.973Z,167.52
2018-03-08T00:30:16.611Z,171.35
2018-03-08T00:32:44.190Z,133.77
2018-03-08T00:35:11.950Z,157.75
2018-03-08T00:37:39.722Z,156.63
2018-03-08T00:40:07.270Z,156.45
2018-03-08T00:42:34.948Z,158.00
2018-03-08T00:45:02.526Z,147.65
2018-03-08T00:47:30.287Z,166.25
2018-03-08T00:49:58.662Z,187.60
2018-03-08T00:52:26.358Z,140.88
2018-03-08T00:54:54.198Z,142.18
2018-03-08T00:57:21.966Z,204.35
2018-03-08T00:59:49.726Z,183.52
2018-03-08T01:02:17.197Z,138.88
2018-03-08T01:04:44.938Z,135.73
2018-03-08T01:07:12.415Z,127.07
2018-03-08T01:09:40.043Z,129.75
2018-03-08T01:12:07.809Z,132.43
2018-03-08T01:14:35.277Z,171.13
2018-03-08T01:17:03.140Z,166.45
2018-03-08T01:19:30.819Z,128.27
2018-03-08T01:21:58.669Z,128.75
2018-03-08T01:24:26.319Z,129.18
2018-03-08T01:26:53.777Z,129.63
2018-03-08T01:29:21.665Z,122.68
2018-03-08T01:34:22.109Z,134.20
2018-03-08T01:36:49.554Z,121.30
2018-03-08T01:39:17.645Z,123.05
2018-03-08T01:41:45.561Z,39.92
2018-03-08T01:44:14.081Z,121.43
2018-03-08T01:46:41.845Z,146.68
2018-03-08T01:49:09.964Z,146.52
2018-03-08T01:51:37.693Z,141.35
2018-03-08T01:54:05.328Z,141.10
2018-03-08T01:56:32.905Z,144.62
2018-03-08T01:59:00.679Z,143.55
2018-03-08T02:01:28.118Z,144.98
2018-03-08T02:03:55.578Z,143.32
2018-03-08T02:06:23.355Z,145.48
2018-03-08T02:08:50.993Z,142.70
2018-03-08T02:11:18.863Z,143.05
2018-03-08T02:13:46.647Z,143.30
2018-03-08T02:16:14.106Z,143.50
2018-03-08T02:18:41.870Z,141.12
2018-03-08T02:21:09.324Z,140.75
2018-03-08T02:23:36.950Z,143.62
2018-03-08T02:26:04.436Z,144.35
2018-03-08T02:28:32.310Z,144.07
2018-03-08T02:30:59.765Z,141.82
2018-03-08T02:33:27.206Z,141.80
2018-03-08T02:35:54.994Z,141.05
2018-03-08T02:38:22.655Z,145.75
2018-03-08T02:40:50.509Z,143.20
2018-03-08T02:43:18.159Z,141.35
2018-03-08T02:45:45.926Z,141.07
2018-03-08T02:48:13.507Z,138.50
2018-03-08T02:50:40.963Z,146.02
2018-03-08T02:53:09.035Z,143.77
2018-03-08T02:55:36.492Z,138.60
2018-03-08T02:58:03.967Z,140.20
2018-03-08T03:00:31.719Z,141.82
2018-03-08T03:02:59.356Z,141.98
2018-03-08T03:05:26.803Z,137.27
2018-03-08T03:07:54.270Z,139.35
2018-03-08T03:10:22.188Z,139.18
2018-03-08T03:12:49.792Z,137.85
2018-03-08T03:15:17.683Z,116.47
2018-03-08T03:17:45.372Z,140.52
2018-03-08T03:20:13.211Z,139.40
2018-03-08T03:22:40.851Z,139.15
2018-03-08T03:25:08.336Z,142.35
2018-03-08T03:27:35.791Z,138.23
2018-03-08T03:30:03.361Z,145.55
2018-03-08T03:32:31.111Z,139.23
2018-03-08T03:34:59.526Z,141.43
2018-03-08T03:37:27.134Z,140.40
2018-03-08T03:39:54.719Z,142.55
2018-03-08T03:42:22.475Z,143.73
2018-03-08T03:44:50.247Z,141.50
2018-03-08T03:47:18.151Z,142.95
2018-03-08T03:49:45.583Z,139.02
2018-03-08T03:52:13.131Z,140.37
2018-03-08T03:54:40.592Z,143.93
2018-03-08T03:57:08.035Z,142.90
2018-03-08T03:59:35.598Z,138.85
2018-03-08T04:02:03.378Z,143.15
2018-03-08T04:04:31.113Z,138.32
2018-03-08T04:06:58.760Z,143.32
2018-03-08T04:09:26.347Z,142.13
2018-03-08T04:11:54.602Z,141.57
2018-03-08T04:14:22.494Z,142.02
2018-03-08T04:16:50.039Z,142.35
2018-03-08T04:19:17.710Z,144.13
2018-03-08T04:21:45.831Z,143.87
2018-03-08T04:24:13.474Z,141.32
2018-03-08T04:26:41.687Z,139.70
2018-03-08T04:29:09.387Z,142.60
2018-03-08T04:31:36.835Z,144.35
2018-03-08T04:34:04.391Z,140.50
2018-03-08T04:36:32.373Z,138.37
2018-03-08T04:39:00.043Z,144.62
2018-03-08T04:41:27.541Z,141.10
2018-03-08T04:43:55.230Z,142.52
2018-03-08T04:46:22.679Z,144.85
2018-03-08T04:48:50.453Z,145.23
2018-03-08T04:51:18.030Z,149.70
2018-03-08T04:53:45.727Z,140.55
2018-03-08T04:56:13.463Z,141.62
2018-03-08T04:58:41.342Z,139.35
2018-03-08T05:01:08.885Z,144.40
2018-03-08T05:03:36.610Z,142.90
2018-03-08T05:06:04.189Z,142.80
2018-03-08T05:08:31.950Z,142.48
2018-03-08T05:10:59.403Z,142.10
2018-03-08T05:13:26.876Z,138.88
2018-03-08T05:15:54.318Z,145.12
2018-03-08T05:18:22.215Z,120.32
2018-03-08T05:20:49.659Z,146.65
2018-03-08T05:23:17.307Z,145.90
2018-03-08T05:25:45.380Z,141.15
2018-03-08T05:28:12.870Z,144.80
2018-03-08T05:30:40.330Z,143.65
2018-03-08T05:33:08.058Z,142.98
2018-03-08T05:35:35.814Z,145.07
2018-03-08T05:38:03.710Z,143.93
2018-03-08T05:40:31.475Z,141.70
2018-03-08T05:42:58.946Z,141.90
2018-03-08T05:45:26.700Z,141.57
2018-03-08T05:47:54.154Z,146.45
2018-03-08T05:50:21.794Z,146.35
2018-03-08T05:52:49.688Z,154.00
2018-03-08T05:55:17.331Z,142.93
2018-03-08T05:57:44.785Z,143.40
2018-03-08T06:00:12.235Z,143.00
2018-03-08T06:02:39.820Z,146.32
2018-03-08T06:05:07.592Z,149.45
2018-03-08T06:07:35.253Z,146.07
2018-03-08T06:10:04.034Z,146.43
2018-03-08T06:12:31.674Z,142.02
2018-03-08T06:14:59.750Z,145.45
2018-03-08T06:17:27.327Z,142.93
2018-03-08T06:19:55.104Z,143.35
2018-03-08T06:22:22.543Z,149.18
2018-03-08T06:24:50.319Z,140.10
2018-03-08T06:27:18.094Z,150.52
2018-03-08T06:29:45.538Z,147.40
2018-03-08T06:32:13.183Z,142.50
2018-03-08T06:34:40.755Z,146.50
2018-03-08T06:37:08.398Z,143.13
2018-03-08T06:39:35.891Z,144.13
2018-03-08T06:42:03.343Z,144.32
2018-03-08T06:44:31.507Z,148.62
2018-03-08T06:46:59.146Z,144.50
2018-03-08T06:49:26.726Z,146.32
2018-03-08T06:51:54.381Z,145.70
2018-03-08T06:54:21.851Z,147.00
2018-03-08T06:56:49.611Z,145.65
2018-03-08T06:59:17.483Z,145.25
2018-03-08T07:01:45.252Z,144.02
2018-03-08T07:04:12.706Z,142.00
2018-03-08T07:06:40.772Z,152.73
2018-03-08T07:09:08.534Z,148.77
2018-03-08T07:11:35.978Z,143.93
2018-03-08T07:14:03.631Z,145.98
2018-03-08T07:16:31.091Z,144.32
2018-03-08T07:18:58.855Z,121.32
2018-03-08T07:21:26.320Z,142.48
2018-03-08T07:23:53.816Z,146.80
2018-03-08T07:26:21.658Z,145.48
2018-03-08T07:28:49.243Z,149.32
2018-03-08T07:31:16.750Z,146.15
2018-03-08T07:33:44.339Z,144.68
2018-03-08T07:36:12.012Z,144.27
2018-03-08T07:38:39.747Z,144.73
2018-03-08T07:41:07.194Z,144.07
2018-03-08T07:43:35.043Z,144.80
2018-03-08T07:46:03.155Z,145.52
2018-03-08T07:48:31.117Z,152.02
2018-03-08T07:50:58.560Z,148.10
2018-03-08T07:53:26.477Z,144.13
2018-03-08T07:55:54.214Z,147.52
2018-03-08T07:58:21.659Z,147.20
2018-03-08T08:00:49.450Z,147.23
2018-03-08T08:03:17.203Z,149.38
2018-03-08T08:05:56.312Z,151.00
2018-03-08T08:08:35.555Z,156.43
2018-03-08T08:11:03.539Z,157.18
2018-03-08T08:13:31.250Z,167.48
2018-03-08T08:15:58.970Z,156.98
2018-03-08T08:18:26.635Z,162.10
2018-03-08T08:20:54.305Z,161.68
2018-03-08T08:23:21.731Z,152.62
2018-03-08T08:25:49.503Z,157.30
2018-03-08T08:28:17.187Z,152.55
2018-03-08T08:30:44.656Z,153.20
2018-03-08T08:33:12.104Z,158.25
2018-03-08T08:35:40.560Z,155.32
2018-03-08T08:38:08.328Z,148.68
2018-03-08T08:40:35.787Z,155.70
2018-03-08T08:43:03.551Z,152.15
2018-03-08T08:45:31.583Z,154.70
2018-03-08T08:47:59.079Z,155.68
2018-03-08T08:50:26.842Z,158.65
2018-03-08T08:52:55.095Z,155.20
2018-03-08T08:55:22.891Z,154.10
2018-03-08T08:57:50.748Z,162.85
2018-03-08T09:00:18.227Z,175.67
2018-03-08T09:05:36.139Z,182.60
2018-03-08T09:10:57.028Z,184.03
2018-03-08T09:13:25.520Z,194.83
2018-03-08T09:15:52.983Z,183.77
2018-03-08T09:18:20.740Z,185.37
2018-03-08T09:20:48.195Z,182.30
2018-03-08T09:23:16.295Z,192.67
2018-03-08T09:25:43.951Z,184.63
2018-03-08T09:28:11.418Z,191.97
2018-03-08T09:30:39.299Z,195.17
2018-03-08T09:33:07.063Z,196.70
2018-03-08T09:35:34.526Z,197.37
2018-03-08T09:38:02.062Z,205.13
2018-03-08T09:40:29.526Z,202.67
2018-03-08T09:42:57.192Z,208.13
2018-03-08T09:45:24.954Z,221.43
2018-03-08T09:47:53.059Z,237.33
2018-03-08T09:50:21.410Z,230.67
2018-03-08T09:52:48.864Z,223.53
2018-03-08T09:55:17.354Z,208.33
2018-03-08T09:57:45.323Z,210.20
2018-03-08T10:00:12.775Z,195.70
2018-03-08T10:02:40.852Z,216.43
2018-03-08T10:05:08.542Z,222.07
2018-03-08T10:07:36.143Z,207.53
2018-03-08T10:10:03.836Z,229.60
2018-03-08T10:12:31.499Z,235.37
2018-03-08T10:14:58.969Z,240.37
2018-03-08T10:17:26.428Z,245.43
2018-03-08T10:19:54.283Z,251.70
2018-03-08T10:22:21.919Z,251.77
2018-03-08T10:24:49.378Z,249.23
2018-03-08T10:27:16.864Z,250.33
2018-03-08T10:29:44.723Z,241.10
2018-03-08T10:32:12.491Z,240.90
2018-03-08T10:34:40.126Z,246.20
2018-03-08T10:37:07.885Z,240.53
2018-03-08T10:39:35.359Z,237.60
2018-03-08T10:42:02.928Z,228.20
2018-03-08T10:44:30.401Z,232.87
2018-03-08T10:46:58.069Z,229.37
2018-03-08T10:49:25.522Z,231.40
2018-03-08T10:51:52.996Z,222.27
2018-03-08T10:54:20.450Z,213.90
2018-03-08T10:56:48.292Z,206.50
2018-03-08T10:59:15.745Z,221.40
2018-03-08T11:01:44.117Z,213.97
2018-03-08T11:04:14.674Z,220.93
2018-03-08T11:06:42.377Z,224.07
2018-03-08T11:09:09.995Z,239.00
2018-03-08T11:11:37.640Z,238.13
2018-03-08T11:14:05.279Z,225.30
2018-03-08T11:16:33.163Z,219.37
2018-03-08T11:19:00.892Z,192.97
2018-03-08T11:21:28.570Z,195.70
2018-03-08T11:23:56.029Z,196.93
2018-03-08T11:26:23.607Z,197.60
2018-03-08T11:28:51.300Z,189.73
2018-03-08T11:31:18.767Z,198.50
2018-03-08T11:33:46.591Z,177.85
2018-03-08T11:36:14.664Z,189.57
2018-03-08T11:38:42.442Z,194.50
2018-03-08T11:41:10.067Z,208.50
2018-03-08T11:43:37.964Z,209.10
2018-03-08T11:46:06.646Z,196.67
2018-03-08T11:48:33.842Z,205.70
2018-03-08T11:51:00.818Z,191.40
2018-03-08T11:53:28.887Z,193.45
2018-03-08T11:55:56.470Z,189.05
2018-03-08T11:58:23.947Z,190.80
2018-03-08T12:00:51.691Z,180.27
2018-03-08T12:03:19.456Z,185.20
2018-03-08T12:05:46.915Z,187.10
2018-03-08T12:08:14.987Z,172.05
2018-03-08T12:10:42.622Z,190.52
2018-03-08T12:13:10.089Z,190.07
2018-03-08T12:15:37.971Z,184.37
2018-03-08T12:18:05.449Z,178.62
2018-03-08T12:20:34.480Z,168.90
2018-03-08T12:23:01.926Z,177.57
2018-03-08T12:25:29.822Z,171.93
2018-03-08T12:27:57.662Z,178.07
2018-03-08T12:30:25.127Z,166.57
2018-03-08T12:32:52.575Z,42.25
2018-03-08T12:35:20.239Z,199.98
2018-03-08T12:37:50.043Z,215.68
2018-03-08T12:40:17.632Z,212.65
2018-03-08T12:42:45.527Z,274.45
2018-03-08T12:45:13.291Z,167.73
2018-03-08T12:47:40.747Z,162.48
2018-03-08T12:50:08.515Z,221.70
2018-03-08T12:52:36.582Z,170.82
2018-03-08T12:55:04.042Z,169.77
2018-03-08T12:57:31.807Z,197.62
2018-03-08T12:59:59.983Z,180.95
2018-03-08T13:02:27.828Z,177.65
2018-03-08T13:04:55.313Z,158.23
2018-03-08T13:07:22.764Z,172.37
2018-03-08T13:09:50.315Z,174.10
2018-03-08T13:12:18.267Z,170.82
2018-03-08T13:14:45.983Z,178.65
2018-03-08T13:17:14.447Z,181.82
2018-03-08T13:19:41.860Z,164.25
2018-03-08T13:22:09.324Z,175.82
2018-03-08T13:24:37.827Z,182.65
2018-03-08T13:27:05.282Z,182.23
2018-03-08T13:29:32.946Z,175.95
2018-03-08T13:32:00.689Z,187.45
2018-03-08T13:34:28.183Z,162.85
2018-03-08T13:36:55.638Z,210.55
2018-03-08T13:39:23.495Z,257.23
2018-03-08T13:41:50.963Z,188.98
2018-03-08T13:44:18.888Z,212.57
2018-03-08T13:46:46.478Z,262.70
2018-03-08T13:49:25.666Z,156.05
2018-03-08T13:51:53.275Z,253.57
2018-03-08T13:54:21.141Z,277.50
2018-03-08T13:56:49.182Z,232.40
2018-03-08T13:59:16.847Z,169.77
2018-03-08T14:01:44.302Z,248.15
2018-03-08T14:04:12.195Z,135.50
2018-03-08T14:06:39.762Z,128.02
2018-03-08T14:09:07.290Z,35.58
2018-03-08T14:11:34.770Z,220.27
2018-03-08T14:14:02.240Z,41.40
2018-03-08T14:16:29.699Z,70.93
2018-03-08T14:18:57.546Z,77.72
2018-03-08T14:21:25.188Z,54.00
2018-03-08T14:23:52.948Z,50.97
2018-03-08T14:26:21.147Z,47.62
2018-03-08T14:28:48.915Z,50.75
2018-03-08T14:31:16.558Z,46.97
2018-03-08T14:33:44.447Z,95.90
2018-03-08T14:36:12.087Z,15.35
2018-03-08T14:38:39.757Z,32.28
2018-03-08T14:41:07.427Z,39.15
2018-03-08T14:43:35.503Z,212.23
2018-03-08T14:46:03.243Z,13.18
2018-03-08T14:48:30.903Z,17.80
2018-03-08T14:50:58.374Z,215.50
2018-03-08T14:53:25.854Z,166.77
2018-03-08T14:55:53.710Z,38.90
2018-03-08T14:58:21.471Z,32.55
2018-03-08T15:00:49.139Z,40.17
2018-03-08T15:03:16.603Z,14.82
2018-03-08T15:05:44.055Z,13.07
2018-03-08T15:08:11.789Z,60.00
2018-03-08T15:10:39.358Z,10.90
2018-03-08T15:13:07.017Z,11.57
2018-03-08T15:15:34.455Z,11.43
2018-03-08T15:18:02.043Z,14.00
2018-03-08T15:20:29.815Z,15.35
2018-03-08T15:22:57.419Z,14.73
2018-03-08T15:25:25.631Z,12.57
2018-03-08T15:27:53.719Z,12.00
2018-03-08T15:30:21.266Z,12.65
2018-03-08T15:32:49.030Z,14.63
2018-03-08T15:35:17.367Z,8.07
2018-03-08T15:37:44.957Z,12.82
2018-03-08T15:40:12.558Z,11.73
2018-03-08T15:42:40.019Z,11.10
2018-03-08T15:45:07.763Z,12.40
2018-03-08T15:47:35.527Z,10.00
2018-03-08T15:50:02.993Z,16.42
2018-03-08T15:52:30.434Z,12.10
2018-03-08T15:54:58.207Z,14.55
2018-03-08T15:57:25.971Z,15.13
2018-03-08T15:59:53.422Z,13.27
2018-03-08T16:02:25.681Z,15.38
2018-03-08T16:04:53.258Z,10.15
2018-03-08T16:20:47.938Z,12.93
2018-03-08T16:23:15.430Z,17.23
2018-03-08T16:25:43.255Z,11.95
2018-03-08T16:28:10.693Z,11.88
2018-03-08T16:30:38.387Z,14.45
2018-03-08T16:33:05.942Z,30.25
2018-03-08T16:35:34.014Z,14.13
2018-03-08T16:38:01.779Z,11.27
2018-03-08T16:40:29.851Z,12.70
2018-03-08T16:42:57.511Z,13.38
2018-03-08T16:45:25.254Z,10.88
2018-03-08T16:47:53.020Z,13.02
2018-03-08T16:50:23.752Z,12.45
2018-03-08T16:52:51.439Z,15.05
2018-03-08T16:55:19.199Z,11.20
2018-03-08T16:57:46.915Z,14.60
2018-03-08T17:00:14.352Z,11.12
2018-03-08T17:02:42.067Z,14.07
2018-03-08T17:05:09.546Z,12.05
2018-03-08T17:07:37.102Z,14.50
2018-03-08T17:10:04.870Z,12.00
2018-03-08T17:12:32.504Z,12.23
2018-03-08T17:15:00.390Z,12.13
2018-03-08T17:17:28.022Z,10.38
2018-03-08T17:19:55.867Z,9.73
2018-03-08T17:22:23.586Z,11.88
2018-03-08T17:24:51.342Z,13.18
2018-03-08T17:27:18.785Z,14.90
2018-03-08T17:29:46.455Z,14.60
2018-03-08T17:32:14.027Z,13.77
2018-03-08T17:34:41.895Z,15.65
2018-03-08T17:37:09.528Z,19.30
2018-03-08T17:39:37.027Z,10.23
2018-03-08T17:42:04.875Z,11.30
2018-03-08T17:44:32.948Z,11.15
2018-03-08T17:47:00.716Z,31.83
2018-03-08T17:49:28.387Z,25.92
2018-03-08T17:51:56.108Z,16.10
2018-03-08T17:54:23.575Z,13.90
2018-03-08T17:56:51.199Z,15.15
2018-03-08T17:59:18.800Z,11.88
2018-03-08T18:01:48.280Z,12.90
2018-03-08T18:04:16.155Z,11.43
2018-03-08T18:06:43.933Z,23.90
2018-03-08T18:09:11.699Z,8.77
2018-03-08T18:11:39.164Z,18.27
2018-03-08T18:14:06.905Z,10.57
2018-03-08T18:16:34.494Z,37.35
2018-03-08T18:19:02.446Z,37.50
2018-03-08T18:21:30.027Z,12.18
2018-03-08T18:23:57.505Z,43.28
2018-03-08T18:26:25.160Z,10.60
2018-03-08T18:28:52.620Z,24.45
2018-03-08T18:31:20.078Z,13.00
2018-03-08T18:33:47.804Z,43.13
2018-03-08T18:36:15.691Z,14.25
2018-03-08T18:41:16.626Z,92.90
2018-03-08T18:43:44.074Z,53.38
2018-03-08T18:46:12.155Z,9.88
2018-03-08T18:48:40.043Z,9.00
2018-03-08T18:51:07.503Z,26.23
2018-03-08T18:53:35.142Z,57.40
2018-03-08T18:56:02.634Z,14.90
2018-03-08T18:58:30.265Z,16.90
2018-03-08T19:00:57.695Z,6.87
2018-03-08T19:03:25.277Z,8.40
2018-03-08T19:05:52.794Z,15.60
2018-03-08T19:08:20.635Z,7.55
2018-03-08T19:10:48.694Z,13.15
2018-03-08T19:13:16.462Z,45.30
2018-03-08T19:15:44.223Z,25.55
2018-03-08T19:18:12.013Z,12.45
2018-03-08T19:20:39.754Z,29.35
2018-03-08T19:23:07.389Z,28.35
2018-03-08T19:25:35.155Z,15.23
2018-03-08T19:28:02.736Z,18.65
2018-03-08T19:30:30.682Z,16.80
2018-03-08T19:32:58.519Z,12.98
2018-03-08T19:35:26.172Z,11.63
2018-03-08T19:37:53.976Z,9.82
2018-03-08T19:40:21.554Z,14.95
2018-03-08T19:42:49.627Z,10.35
2018-03-08T19:45:17.698Z,13.90
2018-03-08T19:47:45.464Z,12.77
2018-03-08T19:50:13.235Z,11.82
2018-03-08T19:52:40.766Z,13.23
2018-03-08T19:55:08.511Z,13.48
2018-03-08T19:57:36.383Z,11.15
2018-03-08T20:00:03.823Z,15.27
2018-03-08T20:02:32.094Z,33.85
2018-03-08T20:04:59.821Z,15.93
2018-03-08T20:07:27.579Z,10.55
2018-03-08T20:09:55.258Z,10.45
2018-03-08T20:12:22.991Z,14.68
2018-03-08T20:14:50.566Z,10.23
2018-03-08T20:17:18.200Z,12.30
2018-03-08T20:19:45.970Z,9.70
2018-03-08T20:22:13.551Z,12.00
2018-03-08T20:24:41.315Z,14.35
2018-03-08T20:27:08.766Z,15.80
2018-03-08T20:29:36.230Z,12.37
2018-03-08T20:32:03.691Z,13.55
2018-03-08T20:34:31.514Z,10.18
2018-03-08T20:36:59.234Z,12.05
2018-03-08T20:39:26.978Z,11.88
2018-03-08T20:41:54.619Z,10.38
2018-03-08T20:44:22.066Z,12.65
2018-03-08T20:46:49.659Z,12.20
2018-03-08T20:49:17.395Z,12.90
2018-03-08T20:51:45.190Z,17.02
2018-03-08T20:54:13.133Z,33.75
2018-03-08T20:56:40.823Z,9.98
2018-03-08T20:59:08.791Z,15.43
2018-03-08T21:01:36.428Z,13.55
2018-03-08T21:04:04.003Z,9.95
2018-03-08T21:06:31.774Z,11.63
2018-03-08T21:08:59.227Z,14.85
2018-03-08T21:11:27.299Z,15.13
2018-03-08T21:13:55.062Z,32.88
2018-03-08T21:16:22.522Z,13.10
2018-03-08T21:18:50.595Z,16.02
2018-03-08T21:21:18.326Z,33.30
2018-03-08T21:23:46.005Z,21.08
2018-03-08T21:26:13.863Z,10.45
2018-03-08T21:28:41.599Z,21.73
2018-03-08T21:31:09.042Z,18.15
2018-03-08T21:33:36.803Z,12.82
2018-03-08T21:36:04.331Z,26.10
2018-03-08T21:38:32.103Z,16.45
2018-03-08T21:41:00.167Z,11.82
2018-03-08T21:43:27.793Z,7.90
2018-03-08T21:45:55.386Z,8.88
2018-03-08T21:48:22.826Z,53.87
2018-03-08T21:50:50.609Z,11.30
2018-03-08T21:53:18.658Z,9.30
2018-03-08T21:55:46.313Z,24.63
2018-03-08T21:58:13.846Z,10.52
2018-03-08T22:00:41.704Z,27.02
2018-03-08T22:03:09.743Z,7.43
2018-03-08T22:05:37.182Z,8.90
2018-03-08T22:08:04.635Z,21.33
2018-03-08T22:10:32.308Z,14.23
2018-03-08T22:13:00.183Z,12.05
2018-03-08T22:15:27.854Z,8.20
2018-03-08T22:17:55.720Z,15.15
2018-03-08T22:20:23.166Z,11.50
2018-03-08T22:22:50.817Z,11.52
2018-03-08T22:25:18.258Z,13.32
2018-03-08T22:27:46.460Z,8.30
2018-03-08T22:30:14.088Z,14.40
2018-03-08T22:32:41.983Z,10.57
2018-03-08T22:35:10.059Z,13.18
2018-03-08T22:37:37.927Z,11.35
2018-03-08T22:42:38.575Z,20.75
2018-03-08T22:45:06.035Z,26.75
2018-03-08T22:47:33.482Z,21.20
2018-03-08T22:50:01.234Z,24.40
2018-03-08T22:52:28.892Z,32.97
2018-03-08T22:54:56.358Z,49.95
2018-03-08T22:57:23.847Z,27.17
2018-03-08T22:59:51.323Z,9.95
2018-03-08T23:02:18.779Z,13.77
2018-03-08T23:04:46.220Z,11.35
2018-03-08T23:07:13.668Z,8.75
2018-03-08T23:09:41.216Z,17.80
2018-03-08T23:12:08.982Z,26.20
2018-03-08T23:14:37.051Z,10.45
2018-03-08T23:17:04.511Z,17.55
2018-03-08T23:19:32.144Z,33.63
2018-03-08T23:21:59.614Z,40.25
2018-03-08T23:24:27.107Z,30.73
2018-03-08T23:26:54.950Z,22.45
2018-03-08T23:29:22.900Z,9.55
2018-03-08T23:31:50.482Z,10.77
2018-03-08T23:34:18.116Z,9.25
2018-03-08T23:36:45.874Z,32.50
2018-03-08T23:39:13.652Z,33.00
2018-03-08T23:41:41.267Z,42.97
2018-03-08T23:44:08.907Z,11.25
2018-03-08T23:46:36.363Z,29.30
2018-03-08T23:49:03.812Z,14.07
2018-03-08T23:51:31.263Z,37.63
2018-03-08T23:53:58.887Z,12.10
2018-03-08T23:56:26.584Z,15.68
2018-03-08T23:58:54.259Z,17.12
